Hovedside
METAR-TAF:

METAR-TAF

Lufthavner :

Skövde, Sverige

breddegrad: 58-27N, lengdegrad: 013-58E, høyde over havet: 98 m

Gjeldene værobservasjon

Denne rapporten ble laget for 33 minutter siden, klokken 14:50 UTC
Vind 3 kt fra Sørøst
Temperatur 4°C
Luftfuktighet 100%
Trykk 1011 hPa
Sikt: 9000 m
dis

METAR: ESGR 141450Z AUTO 14003KT 9000 BR SCT027/// OVC036/// 04/04 Q1011

Tid: 16:23 (15:23 UTC)


TAF: fraværende

Værobservasjoner og værvarsel for over 4000 flyplasser (METAR- og TAF-rapporter).

Tilgjengelige stasjoner er representert av de røde og gule prikkene på kartet.

Hold musepekeren over prikken for å se navnet på stasjonen.

Klikk så for å se værobservasjoner og -varsler.

For å forandre kartet kan du klikke på den grønne knappen med svart kryss for å zoome inn, på den grønne knappen med strek for å zoome ut, eller på de grønne pilene for å se tilstøtende kart.


METAR-TAF: